Flight Track Log - Related Links

Times and Time Zones

All times are in EDT time to prevent confusion due to time zone crossing. See the CSN6178 flight status page for this flight to view local times or setup timezone preferences in your user account.

Time Position Orientation Groundspeed Altitude Reporting Facility
EDT Latitude Longitude Course Direction KTS MPH feet Rate Location/Type
Thu 01:52:00 AM 43.5755 124.9366 210° Southwest  Level Estimated
Thu 01:53:00 AM 43.4926 124.8718 210° Southwest  Level Estimated
Thu 01:54:00 AM 43.4097 124.8072 210° Southwest  Level Estimated
Thu 01:55:00 AM 43.3268 124.7428 209° Southwest  Level Estimated
Thu 01:56:00 AM 43.2438 124.6786 209° Southwest  Level Estimated
Thu 01:57:00 AM 43.1608 124.6145 209° Southwest  Level Estimated
Thu 01:58:00 AM 43.0778 124.5506 209° Southwest  Level Estimated
Thu 01:59:00 AM 42.9947 124.4869 209° Southwest  Level Estimated
Thu 02:00:00 AM 42.9116 124.4234 209° Southwest  Level Estimated
Thu 02:01:00 AM 42.8284 124.3600 209° Southwest  Level Estimated
Thu 02:02:00 AM 42.7453 124.2968 209° Southwest  Level Estimated
Thu 02:03:00 AM 42.6620 124.2338 209° Southwest  Level Estimated
Thu 02:04:00 AM 42.5788 124.1709 209° Southwest  Level Estimated
Thu 02:05:00 AM 42.4955 124.1082 209° Southwest  Level Estimated
Thu 02:06:00 AM 42.4122 124.0457 209° Southwest  Level Estimated
Thu 02:07:00 AM 42.3288 123.9833 209° Southwest  Level Estimated
Thu 02:08:00 AM 42.2349 123.9133 209° Southwest  Level Estimated
Thu 02:09:00 AM 42.1410 123.8435 209° Southwest  Level Estimated
Thu 02:10:00 AM 42.0470 123.7739 209° Southwest  Level Estimated
Thu 02:11:00 AM 41.9530 123.7045 209° Southwest  Level Estimated
Thu 02:12:00 AM 41.8589 123.6353 209° Southwest  Level Estimated
Thu 02:13:00 AM 41.7648 123.5663 209° Southwest  Level Estimated
Thu 02:14:00 AM 41.6707 123.4975 209° Southwest  Level Estimated
Thu 02:15:00 AM 41.5765 123.4289 209° Southwest  Level Estimated
Thu 02:16:00 AM 41.4823 123.3605 209° Southwest  Level Estimated
Thu 02:17:00 AM 41.3880 123.2923 208° Southwest  Level Estimated
Thu 02:18:00 AM 41.2937 123.2243 208° Southwest  Level Estimated
Thu 02:19:00 AM 41.1994 123.1565 208° Southwest  Level Estimated
Thu 02:20:00 AM 41.1050 123.0889 208° Southwest  Level Estimated
Thu 02:21:00 AM 41.0106 123.0215 208° Southwest  Level Estimated
Thu 02:22:00 AM 40.9161 122.9543 208° Southwest  Level Estimated
Thu 02:23:00 AM 40.8216 122.8873 208° Southwest  Level Estimated
Thu 02:24:00 AM 40.7270 122.8205 208° Southwest  Level Estimated
Thu 02:25:00 AM 40.6325 122.7538 208° Southwest  Level Estimated
Thu 02:26:00 AM 40.5378 122.6874 208° Southwest  Level Estimated
Thu 02:27:00 AM 40.4432 122.6211 208° Southwest  Level Estimated
Thu 02:28:00 AM 40.3485 122.5550 208° Southwest  Level Estimated
Thu 02:29:00 AM 40.2537 122.4891 208° Southwest  Level Estimated
Thu 02:30:00 AM 40.1590 122.4234 208° Southwest  Level Estimated
Thu 02:31:00 AM 40.0642 122.3579 208° Southwest  Level Estimated
Thu 02:32:00 AM 39.9693 122.2925 208° Southwest  Level Estimated
Thu 02:33:00 AM 39.8745 122.2274 208° Southwest  Level Estimated
Thu 02:34:00 AM 39.7795 122.1624 208° Southwest  Level Estimated
Thu 02:35:00 AM 39.6846 122.0976 208° Southwest  Level Estimated
Thu 02:36:00 AM 39.5896 122.0330 208° Southwest  Level Estimated
Thu 02:37:00 AM 39.4946 121.9685 208° Southwest  Level Estimated
Thu 02:38:00 AM 39.3995 121.9042 208° Southwest  Level Estimated
Thu 02:39:00 AM 39.3044 121.8401 208° Southwest  Level Estimated
Thu 02:40:00 AM 39.2093 121.7762 208° Southwest  Level Estimated
Thu 02:41:00 AM 39.1141 121.7125 207° Southwest  Level Estimated
Thu 02:42:00 AM 39.0189 121.6489 207° Southwest  Level Estimated
Thu 02:43:00 AM 38.9237 121.5855 207° Southwest  Level Estimated
Thu 02:44:00 AM 38.8284 121.5222 207° Southwest  Level Estimated
Thu 02:45:00 AM 38.7331 121.4592 207° Southwest  Level Estimated
Thu 02:46:00 AM 38.6378 121.3963 207° Southwest  Level Estimated
Thu 02:46:01 AM 38.9195 121.5362 217° Southwest 405 466 34,100  Level FlightAware ADS-B (ZSQD / TAO)
Thu 02:47:00 AM 38.5424 121.3335 207° Southwest  Level Estimated
Thu 02:47:29 AM 38.8401 121.4677 215° Southwest 408 470 34,100  Level FlightAware ADS-B
Thu 02:48:06 AM 38.7183 121.3631 214° Southwest 410 472 34,100  Level FlightAware ADS-B
Thu 02:48:13 AM 38.7074 121.3539 214° Southwest 410 472 34,100  Level FlightAware ADS-B
Thu 02:49:03 AM 38.6302 121.2888 214° Southwest 410 472 34,100  Level FlightAware ADS-B
Thu 02:49:35 AM 38.6048 121.2673 214° Southwest 410 472 34,100  Level FlightAware ADS-B
Thu 02:50:06 AM 38.5294 121.2032 216° Southwest 410 472 34,100  Level FlightAware ADS-B (ZSQD / TAO)
Thu 02:50:36 AM 38.4845 121.1564 223° Southwest 407 468 34,100  Level FlightAware ADS-B (ZSQD / TAO)
Thu 02:50:46 AM 38.4710 121.1397 225° Southwest 406 467 34,100  Level FlightAware ADS-B (ZSQD / TAO)
Thu 02:51:22 AM 38.4273 121.0741 234° Southwest 406 467 34,100  Level FlightAware ADS-B (ZSQD / TAO)
Thu 02:51:49 AM 38.4018 121.0245 239° Southwest 406 467 34,100  Level FlightAware ADS-B (ZSQD / TAO)
Thu 02:52:36 AM 38.3534 120.9245 239° Southwest 409 471 34,100 -4,455 Level FlightAware ADS-B (ZSQD / TAO)
Thu 02:53:30 AM 38.3470 120.9112 239° Southwest 409 471 26,600  Descending FlightAware ADS-B
Thu 02:54:21 AM 38.2499 120.7089 239° Southwest 403 464 34,100 5,556 Climbing FlightAware ADS-B (ZSQD / TAO)
Thu 02:54:51 AM 38.2386 120.6852 239° Southwest 401 461 34,100  Level FlightAware ADS-B (ZSQD / TAO)
Thu 02:55:31 AM 38.1901 120.5839 239° Southwest 400 460 34,100  Level FlightAware ADS-B (ZSQD / TAO)
Thu 02:56:01 AM 38.1532 120.5069 239° Southwest 398 458 34,100  Level FlightAware ADS-B (ZSQD / TAO)
Thu 02:56:32 AM 38.1243 120.4471 239° Southwest 397 457 34,100  Level FlightAware ADS-B (ZSQD / TAO)
Thu 02:57:02 AM 38.0959 120.3881 239° Southwest 398 458 34,100  Level FlightAware ADS-B (ZSQD / TAO)
Thu 02:57:32 AM 38.0668 120.3276 239° Southwest 398 458 34,100  Level FlightAware ADS-B (ZSQD / TAO)
Thu 02:58:02 AM 38.0379 120.2670 240° Southwest 397 457 34,100  Level FlightAware ADS-B (ZSQD / TAO)
Thu 02:58:31 AM 38.0036 120.2147 221° Southwest 398 458 34,100  Level FlightAware ADS-B (ZSQD / TAO)
Thu 02:59:06 AM 37.9859 120.1986 190° South 413 475 34,100  Level FlightAware ADS-B (ZSQD / TAO)
Thu 02:59:26 AM 37.9054 120.1792 179° South 422 486 34,100  Level FlightAware ADS-B (ZSQD / TAO)
Thu 02:59:37 AM 37.8853 120.1836 168° South 431 496 34,100  Level FlightAware ADS-B (ZSQD / TAO)
Thu 03:00:07 AM 37.8387 120.2030 155° Southeast 440 506 34,100  Level FlightAware ADS-B (ZSQD / TAO)
Thu 03:00:16 AM 37.8106 120.2227 147° Southeast 449 517 34,100  Level FlightAware ADS-B (ZSQD / TAO)
Thu 03:00:37 AM 37.7778 120.2569 135° Southeast 462 532 34,100  Level FlightAware ADS-B (ZSQD / TAO)
Thu 03:00:42 AM 37.7699 120.2677 152° Southeast 444 511 34,100  Level FlightAware ADS-B
Thu 03:00:57 AM 37.7513 120.2990 123° Southeast 474 545 34,100  Level FlightAware ADS-B (ZSQD / TAO)
Thu 03:01:06 AM 37.7403 120.3235 116° Southeast 480 552 34,100 136 Level FlightAware ADS-B (ZSQD / TAO)
Thu 03:01:41 AM 37.6995 120.4031 132° Southeast 464 534 34,200 146 Climbing FlightAware ADS-B (ZSQD / TAO)
Thu 03:01:47 AM 37.6896 120.4162 127° Southeast 470 541 34,200  Level FlightAware ADS-B
Thu 03:02:01 AM 37.6680 120.4401 140° Southeast 456 525 34,200 -133 Level FlightAware ADS-B (ZSQD / TAO)
Thu 03:02:32 AM 37.6149 120.4819 153° Southeast 443 510 34,100 -146 Descending FlightAware ADS-B (ZSQD / TAO)
Thu 03:02:42 AM 37.5959 120.4926 157° South 439 505 34,100  Level FlightAware ADS-B (ZSQD / TAO)
Thu 03:03:11 AM 37.5406 120.5118 170° South 428 493 34,100  Level FlightAware ADS-B (ZSQD / TAO)
Thu 03:03:42 AM 37.4788 120.5160 183° South 421 484 34,100 -400 Level FlightAware ADS-B (ZSQD / TAO)
Thu 03:04:11 AM 37.4237 120.5085 187° South 420 483 33,700 -900 Descending FlightAware ADS-B (ZSQD / TAO)
Thu 03:04:42 AM 37.3626 120.5000 187° South 421 484 33,200 -1,000 Descending FlightAware ADS-B (ZSQD / TAO)
Thu 03:05:11 AM 37.3044 120.4918 187° South 424 488 32,700 -1,017 Descending FlightAware ADS-B (ZSQD / TAO)
Thu 03:05:41 AM 37.2456 120.4833 187° South 423 487 32,200 -590 Descending FlightAware ADS-B (ZSQD / TAO)
Thu 03:06:12 AM 37.1878 120.4749 187° South 422 486 32,100 -500 Descending FlightAware ADS-B (ZSQD / TAO)
Thu 03:06:41 AM 37.1298 120.4665 187° South 420 483 31,700 -915 Descending FlightAware ADS-B (ZSQD / TAO)
Thu 03:07:11 AM 37.0715 120.4580 187° South 421 484 31,200 -1,000 Descending FlightAware ADS-B (ZSQD / TAO)
Thu 03:07:41 AM 37.0127 120.4494 187° South 423 487 30,700 -984 Descending FlightAware ADS-B (ZSQD / TAO)
Thu 03:08:12 AM 36.9547 120.4410 187° South 421 484 30,200 -507 Descending FlightAware ADS-B (ZSQD / TAO)
Thu 03:08:52 AM 36.8769 120.4296 187° South 417 480 30,100 -86 Descending FlightAware ADS-B (ZSQD / TAO)
Thu 03:09:22 AM 36.8191 120.4211 187° South 419 482 30,100  Level FlightAware ADS-B (ZSQD / TAO)
Thu 03:09:51 AM 36.7638 120.4128 187° South 420 483 30,100  Level FlightAware ADS-B (ZSQD / TAO)
Thu 03:10:22 AM 36.7034 120.4038 187° South 417 480 30,100  Level FlightAware ADS-B (ZSQD / TAO)
Thu 03:10:51 AM 36.6468 120.3954 187° South 416 479 30,100  Level FlightAware ADS-B (ZSQD / TAO)
Thu 03:11:22 AM 36.5888 120.3869 187° South 416 479 30,100  Level FlightAware ADS-B (ZSQD / TAO)
Thu 03:11:51 AM 36.5322 120.3791 185° South 416 479 30,100  Level FlightAware ADS-B (ZSQD / TAO)
Thu 03:12:31 AM 36.4544 120.3758 182° South 416 479 30,100  Level FlightAware ADS-B (ZSQD / TAO)
Thu 03:13:01 AM 36.3998 120.3739 182° South 415 478 30,100  Level FlightAware ADS-B (ZSQD / TAO)
Thu 03:13:36 AM 36.3301 120.3609 200° South 415 478 30,100  Level FlightAware ADS-B (ZSQD / TAO)
Thu 03:13:47 AM 36.3128 120.3506 210° Southwest 415 478 30,100  Level FlightAware ADS-B (ZSQD / TAO)
Thu 03:14:27 AM 36.2503 120.3002 214° Southwest 416 479 30,100  Level FlightAware ADS-B (ZSQD / TAO)
Thu 03:14:56 AM 36.2020 120.2615 213° Southwest 415 478 30,100  Level FlightAware ADS-B (ZSQD / TAO)
Thu 03:15:26 AM 36.1525 120.2217 213° Southwest 415 478 30,100  Level FlightAware ADS-B (ZSQD / TAO)
Thu 03:15:56 AM 36.1027 120.1821 213° Southwest 408 470 30,100  Level FlightAware ADS-B (ZSQD / TAO)
Thu 03:16:26 AM 36.0558 120.1449 213° Southwest 397 457 30,100  Level FlightAware ADS-B (ZSQD / TAO)
Thu 03:16:57 AM 36.0097 120.1083 213° Southwest 394 453 30,100  Level FlightAware ADS-B (ZSQD / TAO)
Thu 03:17:26 AM 35.9637 120.0718 213° Southwest 394 453 30,100  Level FlightAware ADS-B (ZSQD / TAO)
Thu 03:17:57 AM 35.9177 120.0352 213° Southwest 394 453 30,100 400 Level FlightAware ADS-B (ZSQD / TAO)
Thu 03:18:26 AM 35.8711 119.9983 213° Southwest 398 458 30,500 900 Climbing FlightAware ADS-B (ZSQD / TAO)
Thu 03:18:57 AM 35.8245 119.9616 213° Southwest 399 459 31,000 1,082 Climbing FlightAware ADS-B (ZSQD / TAO)
Thu 03:19:27 AM 35.7775 119.9245 213° Southwest 397 457 31,600 1,100 Climbing FlightAware ADS-B (ZSQD / TAO)
Thu 03:19:57 AM 35.7315 119.8881 213° Southwest 395 455 32,100 508 Climbing FlightAware ADS-B (ZSQD / TAO)
Thu 03:20:26 AM 35.6853 119.8516 213° Southwest 392 451 32,100  Level FlightAware ADS-B (ZSQD / TAO)
Thu 03:20:56 AM 35.6392 119.8152 213° Southwest 395 455 32,100  Level FlightAware ADS-B (ZSQD / TAO)
Thu 03:21:27 AM 35.5928 119.7788 213° Southwest 396 456 32,100  Level FlightAware ADS-B (ZSQD / TAO)
Thu 03:21:57 AM 35.5470 119.7429 213° Southwest 396 456 32,100  Level FlightAware ADS-B (ZSQD / TAO)
Thu 03:22:26 AM 35.5010 119.7069 213° Southwest 396 456 32,100  Level FlightAware ADS-B (ZSQD / TAO)
Thu 03:22:57 AM 35.4574 119.6729 213° Southwest 397 457 32,100  Level FlightAware ADS-B (ZSQD / TAO)
Thu 03:23:26 AM 35.4096 119.6354 213° Southwest 398 458 32,100  Level FlightAware ADS-B (ZSQD / TAO)
Thu 03:23:45 AM 35.3774 119.6103 213° Southwest 398 458 32,100 25 Level FlightAware ADS-B (ZSQD / TAO)
Thu 03:27:25 AM 34.9988 119.4647 213° Southwest 398 458 32,200 27 Climbing FlightAware ADS-B (ZSQD / TAO)
Thu 03:29:00 AM 34.8643 119.3703 210° Southwest  Level Estimated
Thu 03:30:00 AM 34.7793 119.3109 210° Southwest  Level Estimated
Thu 03:31:00 AM 34.6943 119.2516 210° Southwest  Level Estimated
Thu 03:32:00 AM 34.6093 119.1924 210° Southwest  Level Estimated
Thu 03:33:00 AM 34.5243 119.1333 210° Southwest  Level Estimated
Thu 03:34:00 AM 34.4392 119.0744 210° Southwest  Level Estimated
Thu 03:35:00 AM 34.3541 119.0155 210° Southwest  Level Estimated
Thu 03:36:00 AM 34.2689 118.9568 210° Southwest  Level Estimated
Thu 03:37:00 AM 34.1838 118.8983 210° Southwest  Level Estimated
Thu 03:38:00 AM 34.1037 118.8433 210° Southwest  Level Estimated
Thu 03:39:00 AM 34.0237 118.7885 210° Southwest  Level Estimated
Thu 03:40:00 AM 33.9436 118.7338 210° Southwest  Level Estimated
Thu 03:41:00 AM 33.8636 118.6792 210° Southwest  Level Estimated
Thu 03:42:00 AM 33.7835 118.6247 209° Southwest  Level Estimated
Thu 03:43:00 AM 33.7033 118.5703 209° Southwest  Level Estimated
Thu 03:44:00 AM 33.6232 118.5160 209° Southwest  Level Estimated
Thu 03:45:00 AM 33.5430 118.4618 209° Southwest  Level Estimated
Thu 03:46:00 AM 33.4628 118.4077 209° Southwest  Level Estimated
Thu 03:47:00 AM 33.3825 118.3537 209° Southwest  Level Estimated
Thu 03:48:00 AM 33.3023 118.2998 209° Southwest  Level Estimated
Thu 03:49:00 AM 33.2220 118.2460 209° Southwest  Level Estimated
Thu 03:50:00 AM 33.1417 118.1923 209° Southwest  Level Estimated
Thu 03:51:00 AM 33.0614 118.1387 209° Southwest  Level Estimated
Thu 03:52:00 AM 32.9810 118.0852 209° Southwest  Level Estimated
Thu 03:53:00 AM 32.9007 118.0318 209° Southwest  Level Estimated
Thu 03:54:00 AM 32.8203 117.9785 209° Southwest  Level Estimated
Thu 03:55:00 AM 32.7399 117.9253 209° Southwest  Level Estimated
Thu 03:56:00 AM 32.6594 117.8721 209° Southwest  Level Estimated
Thu 03:57:00 AM 32.5790 117.8191 209° Southwest  Level Estimated
Thu 03:58:00 AM 32.4985 117.7662 209° Southwest  Level Estimated
Thu 03:59:00 AM 32.4180 117.7134 209° Southwest  Level Estimated
Thu 04:00:00 AM 32.3375 117.6606 209° Southwest  Level Estimated
Thu 04:01:00 AM 32.2569 117.6080 209° Southwest  Level Estimated
Thu 04:02:00 AM 32.1764 117.5554 209° Southwest  Level Estimated
Thu 04:03:00 AM 32.0958 117.5030 209° Southwest  Level Estimated
Thu 04:04:00 AM 32.0152 117.4506 209° Southwest  Level Estimated
Thu 04:05:00 AM 31.9345 117.3983 209° Southwest  Level Estimated
Thu 04:06:00 AM 31.8539 117.3461 209° Southwest  Level Estimated
Thu 04:07:00 AM 31.7800 117.2984 209° Southwest  Level Estimated
Thu 04:08:00 AM 31.7800 117.2984 North  Level Estimated
Thu 04:09:00 AM 31.7800 117.2984 North  Level Estimated
Thu 04:10:00 AM 31.7800 117.2984 North  Level Estimated
Thu 04:11:00 AM 31.7800 117.2984 North  Level Estimated
Thu 04:12:00 AM 31.7800 117.2984 North  Level Estimated
Thu 04:13:00 AM 31.7800 117.2984 North  Level Estimated
Thu 04:14:00 AM 31.7800 117.2984 North  Level Estimated
Thu 04:15:00 AM 31.7800 117.2984 North  Level Estimated
Thu 04:16:00 AM 31.7800 117.2984 North  Level Estimated
Thu 04:17:00 AM 31.7800 117.2984 North  Level Estimated
Thu 04:18:00 AM 31.7800 117.2984 North  Level Estimated
Thu 04:19:00 AM 31.7800 117.2984 North  Level Estimated
Thu 04:20:00 AM 31.7800 117.2984 North  Level Estimated
Thu 04:21:00 AM 31.7800 117.2984 North  Level Estimated
Thu 04:22:00 AM 31.7800 117.2984 North  Level Estimated
Thu 04:23:00 AM 31.7800 117.2984 North  Level Estimated
Thu 04:24:00 AM 31.7800 117.2984 North  Level Estimated
Thu 04:25:00 AM 31.7800 117.2984 North  Level Estimated
Thu 04:26:00 AM 31.7800 117.2984 North  Level Estimated
Thu 04:27:00 AM 31.7800 117.2984 North  Level Estimated
Thu 04:28:00 AM 31.7800 117.2984 North  Level Estimated
Thu 04:29:00 AM 31.7800 117.2984 North  Level Estimated

Login

Don't have an account? Register now (free) for customized features, flight alerts, and more!